createdAt,value
2019-02-07T00:01:15.224Z,161.10
2019-02-07T00:03:45.309Z,163.00
2019-02-07T00:06:15.331Z,164.23
2019-02-07T00:08:45.067Z,168.63
2019-02-07T00:11:14.722Z,164.33
2019-02-07T00:13:45.391Z,168.27
2019-02-07T00:16:15.380Z,178.40
2019-02-07T00:18:45.391Z,168.67
2019-02-07T00:21:15.107Z,170.90
2019-02-07T00:23:45.131Z,175.73
2019-02-07T00:26:15.074Z,164.83
2019-02-07T00:28:45.279Z,169.50
2019-02-07T00:31:15.035Z,169.80
2019-02-07T00:33:44.754Z,165.43
2019-02-07T00:36:14.531Z,162.83
2019-02-07T00:38:44.775Z,159.87
2019-02-07T00:41:14.888Z,161.73
2019-02-07T00:43:44.691Z,159.03
2019-02-07T00:46:14.652Z,155.43
2019-02-07T00:48:44.400Z,152.70
2019-02-07T00:51:14.301Z,156.10
2019-02-07T00:53:44.507Z,147.80
2019-02-07T00:56:15.441Z,144.93
2019-02-07T00:58:45.574Z,137.30
2019-02-07T01:01:15.700Z,145.20
2019-02-07T01:03:45.979Z,140.93
2019-02-07T01:06:16.834Z,141.60
2019-02-07T01:08:47.479Z,124.00
2019-02-07T01:11:17.748Z,134.40
2019-02-07T01:13:48.167Z,130.30
2019-02-07T01:16:19.225Z,107.90
2019-02-07T01:18:49.155Z,107.40
2019-02-07T01:21:19.175Z,108.03
2019-02-07T01:23:49.116Z,103.30
2019-02-07T01:26:19.407Z,95.93
2019-02-07T01:28:49.588Z,88.57
2019-02-07T01:31:19.503Z,85.53
2019-02-07T01:33:49.863Z,95.50
2019-02-07T01:36:20.096Z,91.43
2019-02-07T01:38:51.307Z,94.33
2019-02-07T01:41:21.987Z,87.60
2019-02-07T01:43:52.124Z,92.40
2019-02-07T01:46:22.910Z,92.63
2019-02-07T01:48:53.626Z,89.23
2019-02-07T01:51:23.659Z,92.90
2019-02-07T01:53:55.346Z,91.57
2019-02-07T01:56:25.225Z,89.77
2019-02-07T01:58:55.213Z,90.57
2019-02-07T02:01:25.534Z,97.63
2019-02-07T02:03:55.750Z,98.33
2019-02-07T02:06:26.031Z,103.40
2019-02-07T02:08:56.483Z,102.63
2019-02-07T02:11:26.358Z,97.33
2019-02-07T02:13:56.308Z,107.33
2019-02-07T02:16:27.135Z,106.13
2019-02-07T02:18:57.255Z,109.13
2019-02-07T02:21:27.172Z,106.63
2019-02-07T02:23:57.035Z,104.17
2019-02-07T02:26:27.311Z,107.97
2019-02-07T02:28:57.576Z,103.33
2019-02-07T02:31:28.555Z,110.33
2019-02-07T02:33:58.463Z,104.27
2019-02-07T02:36:28.903Z,111.37
2019-02-07T02:38:59.171Z,108.57
2019-02-07T02:41:29.117Z,99.17
2019-02-07T02:43:58.772Z,106.40
2019-02-07T02:46:29.508Z,99.77
2019-02-07T02:48:59.497Z,104.70
2019-02-07T02:51:29.663Z,106.53
2019-02-07T02:54:01.395Z,101.40
2019-02-07T02:56:31.105Z,103.20
2019-02-07T02:59:01.112Z,103.93
2019-02-07T03:01:35.751Z,109.10
2019-02-07T03:04:11.231Z,98.17
2019-02-07T03:06:45.518Z,94.83
2019-02-07T03:09:23.343Z,99.27
2019-02-07T03:12:02.375Z,107.27
2019-02-07T03:14:33.963Z,108.97
2019-02-07T03:17:14.815Z,102.60
2019-02-07T03:19:52.513Z,111.63
2019-02-07T03:22:27.110Z,104.40
2019-02-07T03:25:16.857Z,109.40
2019-02-07T03:28:03.375Z,109.17
2019-02-07T03:30:41.193Z,108.70
2019-02-07T03:33:25.457Z,111.73
2019-02-07T03:36:09.065Z,105.73
2019-02-07T03:38:40.708Z,112.77
2019-02-07T03:41:14.700Z,105.40
2019-02-07T03:43:54.741Z,100.30
2019-02-07T03:46:26.170Z,99.87
2019-02-07T03:48:57.667Z,110.93
2019-02-07T03:51:29.034Z,98.80
2019-02-07T03:54:06.881Z,101.90
2019-02-07T03:56:47.955Z,97.77
2019-02-07T03:59:19.560Z,99.10
2019-02-07T04:01:59.931Z,90.03
2019-02-07T04:04:37.834Z,92.07
2019-02-07T04:07:12.071Z,87.07
2019-02-07T04:09:44.111Z,87.33
2019-02-07T04:12:15.699Z,88.03
2019-02-07T04:14:47.349Z,88.83
2019-02-07T04:17:28.070Z,80.33
2019-02-07T04:20:11.837Z,82.87
2019-02-07T04:22:53.278Z,88.93
2019-02-07T04:25:40.608Z,81.67
2019-02-07T04:28:28.454Z,75.67
2019-02-07T04:30:59.531Z,79.03
2019-02-07T04:33:30.608Z,75.53
2019-02-07T04:36:17.251Z,84.37
2019-02-07T04:38:54.614Z,72.83
2019-02-07T04:41:28.759Z,77.40
2019-02-07T04:44:16.746Z,78.53
2019-02-07T04:46:48.277Z,80.57
2019-02-07T04:49:19.488Z,76.20
2019-02-07T04:51:54.892Z,75.97
2019-02-07T04:54:25.993Z,69.43
2019-02-07T04:56:57.749Z,75.80
2019-02-07T04:59:29.224Z,69.17
2019-02-07T05:02:03.168Z,71.30
2019-02-07T05:04:47.747Z,73.83
2019-02-07T05:07:30.766Z,70.93
2019-02-07T05:10:14.580Z,75.83
2019-02-07T05:12:46.002Z,69.83
2019-02-07T05:15:20.663Z,69.17
2019-02-07T05:17:51.895Z,69.60
2019-02-07T05:20:31.871Z,61.30
2019-02-07T05:23:19.723Z,71.33
2019-02-07T05:25:51.093Z,65.37
2019-02-07T05:28:29.561Z,65.67
2019-02-07T05:31:16.703Z,62.83
2019-02-07T05:33:47.856Z,61.47
2019-02-07T05:36:19.339Z,58.63
2019-02-07T05:38:50.563Z,61.23
2019-02-07T05:41:22.848Z,62.37
2019-02-07T05:43:59.905Z,57.23
2019-02-07T05:46:50.750Z,62.77
2019-02-07T05:49:31.540Z,57.10
2019-02-07T05:52:19.487Z,54.10
2019-02-07T05:55:08.600Z,59.27
2019-02-07T05:57:49.057Z,52.60
2019-02-07T06:00:23.551Z,55.07
2019-02-07T06:03:01.138Z,53.27
2019-02-07T06:05:44.812Z,51.13
2019-02-07T06:08:22.154Z,47.80
2019-02-07T06:10:53.367Z,47.30
2019-02-07T06:13:40.975Z,57.17
2019-02-07T06:16:28.156Z,51.20
2019-02-07T06:18:59.765Z,50.10
2019-02-07T06:21:40.290Z,51.73
2019-02-07T06:24:23.467Z,50.80
2019-02-07T06:26:56.439Z,48.07
2019-02-07T06:29:28.312Z,54.70
2019-02-07T06:31:59.497Z,48.50
2019-02-07T06:34:34.027Z,48.17
2019-02-07T06:37:23.565Z,46.77
2019-02-07T06:39:55.904Z,48.50
2019-02-07T06:42:52.995Z,43.97
2019-02-07T06:45:41.550Z,48.77
2019-02-07T06:48:23.353Z,46.93
2019-02-07T06:50:54.835Z,48.00
2019-02-07T06:53:32.356Z,42.43
2019-02-07T06:56:16.175Z,44.73
2019-02-07T06:58:50.439Z,55.53
2019-02-07T07:01:41.503Z,43.17
2019-02-07T07:04:18.719Z,44.40
2019-02-07T07:06:59.561Z,44.30
2019-02-07T07:09:39.699Z,43.63
2019-02-07T07:12:24.033Z,42.93
2019-02-07T07:15:07.844Z,45.73
2019-02-07T07:17:56.086Z,47.07
2019-02-07T07:20:36.499Z,41.73
2019-02-07T07:23:26.574Z,43.77
2019-02-07T07:25:58.739Z,42.07
2019-02-07T07:28:43.028Z,39.77
2019-02-07T07:31:17.243Z,38.90
2019-02-07T07:34:01.495Z,38.60
2019-02-07T07:39:54.463Z,41.77
2019-02-07T07:42:26.086Z,39.10
2019-02-07T07:45:01.091Z,38.37
2019-02-07T07:47:48.350Z,37.87
2019-02-07T07:50:38.423Z,36.03
2019-02-07T07:53:15.637Z,34.57
2019-02-07T07:55:53.463Z,38.93
2019-02-07T07:58:41.059Z,39.23
2019-02-07T08:01:28.844Z,32.20
2019-02-07T08:04:01.071Z,37.03
2019-02-07T08:06:48.899Z,35.03
2019-02-07T08:09:36.839Z,36.13
2019-02-07T08:12:11.383Z,38.93
2019-02-07T08:14:45.795Z,34.30
2019-02-07T08:17:32.368Z,34.10
2019-02-07T08:20:05.161Z,37.03
2019-02-07T08:22:42.608Z,31.77
2019-02-07T08:25:27.462Z,33.03
2019-02-07T08:28:13.967Z,35.50
2019-02-07T08:30:52.383Z,28.73
2019-02-07T08:33:30.607Z,33.30
2019-02-07T08:36:05.039Z,31.07
2019-02-07T08:38:36.359Z,28.43
2019-02-07T08:41:19.838Z,30.53
2019-02-07T08:44:00.063Z,33.07
2019-02-07T08:46:43.148Z,31.33
2019-02-07T08:49:33.182Z,27.67
2019-02-07T08:52:10.536Z,31.10
2019-02-07T08:54:45.415Z,31.47
2019-02-07T08:57:22.786Z,28.13
2019-02-07T08:59:54.859Z,30.93
2019-02-07T09:02:51.543Z,33.50
2019-02-07T09:05:15.455Z,35.23
2019-02-07T09:07:52.385Z,31.90
2019-02-07T09:10:24.051Z,32.80
2019-02-07T09:13:01.485Z,33.40
2019-02-07T09:15:44.466Z,36.73
2019-02-07T09:18:31.155Z,37.90
2019-02-07T09:21:14.715Z,37.77
2019-02-07T09:23:55.064Z,33.50
2019-02-07T09:26:26.326Z,35.80
2019-02-07T09:28:57.762Z,37.10
2019-02-07T09:31:32.928Z,37.87
2019-02-07T09:34:20.451Z,33.90
2019-02-07T09:36:51.651Z,34.77
2019-02-07T09:39:31.851Z,37.80
2019-02-07T09:42:08.744Z,36.20
2019-02-07T09:44:56.314Z,38.80
2019-02-07T09:47:36.504Z,41.90
2019-02-07T09:50:16.563Z,42.27
2019-02-07T09:52:51.067Z,35.63
2019-02-07T09:55:29.951Z,34.20
2019-02-07T09:58:17.163Z,39.87
2019-02-07T10:00:48.588Z,31.30
2019-02-07T10:03:19.675Z,35.07
2019-02-07T10:05:53.731Z,32.50
2019-02-07T10:08:33.983Z,36.27
2019-02-07T10:11:05.238Z,31.37
2019-02-07T10:13:51.390Z,29.67
2019-02-07T10:16:23.302Z,34.27
2019-02-07T10:19:00.294Z,34.00
2019-02-07T10:21:34.529Z,30.93
2019-02-07T10:24:21.020Z,35.53
2019-02-07T10:26:55.285Z,29.90
2019-02-07T10:29:27.158Z,28.07
2019-02-07T10:32:01.847Z,31.50
2019-02-07T10:34:47.160Z,28.97
2019-02-07T10:37:18.516Z,28.20
2019-02-07T10:39:56.355Z,24.83
2019-02-07T10:42:27.835Z,29.57
2019-02-07T10:45:14.890Z,27.77
2019-02-07T10:48:02.420Z,27.23
2019-02-07T10:50:37.111Z,24.90
2019-02-07T10:53:23.072Z,30.07
2019-02-07T10:56:10.698Z,26.60
2019-02-07T10:58:45.014Z,25.97
2019-02-07T11:01:22.345Z,27.63
2019-02-07T11:04:08.539Z,29.27
2019-02-07T11:06:56.399Z,28.47
2019-02-07T11:09:43.447Z,29.67
2019-02-07T11:12:27.053Z,29.73
2019-02-07T11:15:01.579Z,29.33
2019-02-07T11:17:48.139Z,32.53
2019-02-07T11:20:35.899Z,28.23
2019-02-07T11:23:23.789Z,30.00
2019-02-07T11:26:01.299Z,30.53
2019-02-07T11:28:41.828Z,28.77
2019-02-07T11:31:13.349Z,28.23
2019-02-07T11:33:44.532Z,30.63
2019-02-07T11:36:16.632Z,27.50
2019-02-07T11:39:03.926Z,27.30
2019-02-07T11:41:38.308Z,28.30
2019-02-07T11:44:16.066Z,27.23
2019-02-07T11:46:48.971Z,29.43
2019-02-07T11:49:25.234Z,28.13
2019-02-07T11:52:15.007Z,28.40
2019-02-07T11:54:54.582Z,26.00
2019-02-07T11:57:34.981Z,26.40
2019-02-07T12:00:23.402Z,25.67
2019-02-07T12:03:04.131Z,22.20
2019-02-07T12:05:35.843Z,21.17
2019-02-07T12:08:19.619Z,21.83
2019-02-07T12:11:07.242Z,23.57
2019-02-07T12:13:44.747Z,18.43
2019-02-07T12:16:33.970Z,22.70
2019-02-07T12:19:05.575Z,18.00
2019-02-07T12:21:45.970Z,19.57
2019-02-07T12:24:33.725Z,20.00
2019-02-07T12:27:11.342Z,19.80
2019-02-07T12:29:49.122Z,18.63
2019-02-07T12:32:21.200Z,18.10
2019-02-07T12:35:04.809Z,19.63
2019-02-07T12:37:53.537Z,17.03
2019-02-07T12:40:29.787Z,15.00
2019-02-07T12:43:10.621Z,16.20
2019-02-07T12:45:51.043Z,15.10
2019-02-07T12:48:25.219Z,15.20
2019-02-07T12:51:12.934Z,13.93
2019-02-07T12:53:59.321Z,15.97
2019-02-07T12:56:36.939Z,15.60
2019-02-07T12:59:23.587Z,14.83
2019-02-07T13:01:55.448Z,15.07
2019-02-07T13:04:42.716Z,15.13
2019-02-07T13:07:17.365Z,14.10
2019-02-07T13:09:57.498Z,13.80
2019-02-07T13:12:32.009Z,17.23
2019-02-07T13:15:03.746Z,14.70
2019-02-07T13:17:40.968Z,13.07
2019-02-07T13:20:27.329Z,12.37
2019-02-07T13:23:01.888Z,14.97
2019-02-07T13:25:48.234Z,14.50
2019-02-07T13:28:19.879Z,15.10
2019-02-07T13:30:58.209Z,12.03
2019-02-07T13:33:35.760Z,12.17
2019-02-07T13:36:15.364Z,12.47
2019-02-07T13:38:54.372Z,12.67
2019-02-07T13:41:42.498Z,14.57
2019-02-07T13:44:14.984Z,12.73
2019-02-07T13:47:05.126Z,13.10
2019-02-07T13:49:51.349Z,11.17
2019-02-07T13:52:13.787Z,13.80
2019-02-07T13:55:03.103Z,11.77
2019-02-07T13:57:43.306Z,12.60
2019-02-07T14:00:23.455Z,16.03
2019-02-07T14:03:06.818Z,14.73
2019-02-07T14:05:38.664Z,13.20
2019-02-07T14:08:13.067Z,13.57
2019-02-07T14:10:44.077Z,15.40
2019-02-07T14:13:24.043Z,17.23
2019-02-07T14:16:11.284Z,10.10
2019-02-07T14:18:48.647Z,14.17
2019-02-07T14:21:25.356Z,14.63
2019-02-07T14:23:56.393Z,14.43
2019-02-07T14:26:27.641Z,15.87
2019-02-07T14:29:15.269Z,12.07
2019-02-07T14:31:50.563Z,14.60
2019-02-07T14:34:24.672Z,17.13
2019-02-07T14:37:04.852Z,15.20
2019-02-07T14:39:53.129Z,11.97
2019-02-07T14:42:31.153Z,13.70
2019-02-07T14:45:20.639Z,14.27
2019-02-07T14:47:53.143Z,13.13
2019-02-07T14:50:22.658Z,14.03
2019-02-07T14:52:52.200Z,11.63
2019-02-07T14:55:22.029Z,11.27
2019-02-07T14:57:51.569Z,10.53
2019-02-07T15:00:25.258Z,14.43
2019-02-07T15:02:54.884Z,10.63
2019-02-07T15:05:27.406Z,15.13
2019-02-07T15:07:57.016Z,13.73
2019-02-07T15:10:26.510Z,11.83
2019-02-07T15:12:56.161Z,14.40
2019-02-07T15:15:26.198Z,14.87
2019-02-07T15:17:55.810Z,14.00
2019-02-07T15:20:27.055Z,11.10
2019-02-07T15:22:57.052Z,12.90
2019-02-07T15:25:26.764Z,14.67
2019-02-07T15:27:57.807Z,14.57
2019-02-07T15:30:27.844Z,15.87
2019-02-07T15:32:58.056Z,10.80
2019-02-07T15:35:39.364Z,20.07
2019-02-07T15:38:09.019Z,16.87
2019-02-07T15:40:40.682Z,16.30
2019-02-07T15:43:12.991Z,17.00
2019-02-07T15:45:42.669Z,15.37
2019-02-07T15:48:15.662Z,13.90
2019-02-07T15:50:45.243Z,14.47
2019-02-07T15:53:15.071Z,16.17
2019-02-07T15:55:44.640Z,15.17
2019-02-07T15:58:14.177Z,14.80
2019-02-07T16:00:45.187Z,15.67
2019-02-07T16:03:35.377Z,14.20
2019-02-07T16:06:06.424Z,18.47
2019-02-07T16:08:36.280Z,21.80
2019-02-07T16:11:06.579Z,14.53
2019-02-07T16:13:36.779Z,17.40
2019-02-07T16:16:06.480Z,13.27
2019-02-07T16:18:36.035Z,14.87
2019-02-07T16:21:05.744Z,17.10
2019-02-07T16:23:35.734Z,16.23
2019-02-07T16:26:05.771Z,16.67
2019-02-07T16:28:35.875Z,14.47
2019-02-07T16:31:06.532Z,17.93
2019-02-07T16:33:36.093Z,18.50
2019-02-07T16:36:09.391Z,12.67
2019-02-07T16:38:43.324Z,11.90
2019-02-07T16:41:13.335Z,23.57
2019-02-07T16:43:44.224Z,18.97
2019-02-07T16:46:14.618Z,14.17
2019-02-07T16:48:44.102Z,14.83
2019-02-07T16:51:14.162Z,12.67
2019-02-07T16:53:45.887Z,18.73
2019-02-07T16:56:16.671Z,16.83
2019-02-07T16:58:46.418Z,23.37
2019-02-07T17:01:17.867Z,16.83
2019-02-07T17:03:47.655Z,16.70
2019-02-07T17:06:17.191Z,17.87
2019-02-07T17:08:47.567Z,14.70
2019-02-07T17:11:17.181Z,19.60
2019-02-07T17:13:47.130Z,15.40
2019-02-07T17:16:18.483Z,15.00
2019-02-07T17:18:47.960Z,13.90
2019-02-07T17:21:17.591Z,16.13
2019-02-07T17:23:47.820Z,17.53
2019-02-07T17:26:17.391Z,17.10
2019-02-07T17:28:47.131Z,20.00
2019-02-07T17:31:16.719Z,19.77
2019-02-07T17:33:46.373Z,13.97
2019-02-07T17:36:16.384Z,22.37
2019-02-07T17:38:48.374Z,14.00
2019-02-07T17:41:18.051Z,16.77
2019-02-07T17:43:47.611Z,14.00
2019-02-07T17:46:17.289Z,17.77
2019-02-07T17:48:46.993Z,19.70
2019-02-07T17:51:23.280Z,17.97
2019-02-07T17:53:50.908Z,13.27
2019-02-07T17:56:20.486Z,15.87
2019-02-07T17:58:50.033Z,20.13
2019-02-07T18:01:19.728Z,21.10
2019-02-07T18:03:49.282Z,16.10
2019-02-07T18:12:05.299Z,16.10
2019-02-07T18:14:43.096Z,16.63
2019-02-07T18:17:12.601Z,15.33
2019-02-07T18:19:43.501Z,19.33
2019-02-07T18:22:14.395Z,12.87
2019-02-07T18:24:47.108Z,12.27
2019-02-07T18:27:16.950Z,16.30
2019-02-07T18:29:46.800Z,24.17
2019-02-07T18:32:16.333Z,13.10
2019-02-07T18:34:46.127Z,15.13
2019-02-07T18:37:17.452Z,14.00
2019-02-07T18:39:47.119Z,15.17
2019-02-07T18:42:16.739Z,14.00
2019-02-07T18:44:46.419Z,12.23
2019-02-07T18:47:18.811Z,14.13
2019-02-07T18:49:48.511Z,11.70
2019-02-07T18:52:18.414Z,14.53
2019-02-07T18:54:48.291Z,14.23
2019-02-07T18:57:18.089Z,15.33
2019-02-07T18:59:47.866Z,13.07
2019-02-07T19:02:20.160Z,12.60
2019-02-07T19:04:49.761Z,16.10
2019-02-07T19:07:22.193Z,15.93
2019-02-07T19:09:51.836Z,14.43
2019-02-07T19:12:21.502Z,12.27
2019-02-07T19:14:51.046Z,15.87
2019-02-07T19:17:20.570Z,12.03
2019-02-07T19:19:50.267Z,14.93
2019-02-07T19:22:20.908Z,9.03
2019-02-07T19:24:50.922Z,12.27
2019-02-07T19:27:20.439Z,11.47
2019-02-07T19:29:50.368Z,14.03
2019-02-07T19:32:20.488Z,13.53
2019-02-07T19:34:50.350Z,12.73
2019-02-07T19:37:23.078Z,10.67
2019-02-07T19:39:52.732Z,9.43
2019-02-07T19:42:22.331Z,15.70
2019-02-07T19:44:52.125Z,11.67
2019-02-07T19:47:21.616Z,9.80
2019-02-07T19:49:52.740Z,12.33
2019-02-07T19:52:26.268Z,11.13
2019-02-07T19:55:00.569Z,11.50
2019-02-07T19:57:31.334Z,11.37
2019-02-07T20:00:00.912Z,6.50
2019-02-07T20:02:31.658Z,8.90
2019-02-07T20:05:05.684Z,11.10
2019-02-07T20:07:35.254Z,12.20
2019-02-07T20:10:11.263Z,10.73
2019-02-07T20:12:42.480Z,10.03
2019-02-07T20:15:18.964Z,13.67
2019-02-07T20:17:48.603Z,16.73
2019-02-07T20:20:18.718Z,14.50
2019-02-07T20:22:49.275Z,12.83
2019-02-07T20:25:22.981Z,15.93
2019-02-07T20:27:52.462Z,11.30
2019-02-07T20:30:27.468Z,16.27
2019-02-07T20:32:57.037Z,15.37
2019-02-07T20:35:26.733Z,11.83
2019-02-07T20:37:56.448Z,14.17
2019-02-07T20:40:28.189Z,15.90
2019-02-07T20:42:57.921Z,20.60
2019-02-07T20:45:27.654Z,13.43
2019-02-07T20:47:57.755Z,12.37
2019-02-07T20:50:28.708Z,16.03
2019-02-07T20:52:59.156Z,13.93
2019-02-07T20:55:29.480Z,12.57
2019-02-07T20:57:59.158Z,12.93
2019-02-07T21:00:31.070Z,13.53
2019-02-07T21:03:00.957Z,11.53
2019-02-07T21:05:31.829Z,12.33
2019-02-07T21:08:01.958Z,11.30
2019-02-07T21:10:36.722Z,10.27
2019-02-07T21:13:08.193Z,9.63
2019-02-07T21:15:38.380Z,7.63
2019-02-07T21:18:09.968Z,8.50
2019-02-07T21:20:40.349Z,8.00
2019-02-07T21:23:09.968Z,9.00
2019-02-07T21:25:48.027Z,7.30
2019-02-07T21:28:26.499Z,6.40
2019-02-07T21:31:02.120Z,11.60
2019-02-07T21:33:30.761Z,6.40
2019-02-07T21:36:01.909Z,8.07
2019-02-07T21:38:50.286Z,8.97
2019-02-07T21:41:20.432Z,7.67
2019-02-07T21:43:50.185Z,10.53
2019-02-07T21:46:22.634Z,7.47
2019-02-07T21:48:52.741Z,9.97
2019-02-07T21:51:23.000Z,12.43
2019-02-07T21:53:54.731Z,10.87
2019-02-07T21:56:25.025Z,8.33
2019-02-07T21:58:54.785Z,10.40
2019-02-07T22:01:24.847Z,8.87
2019-02-07T22:03:55.006Z,11.83
2019-02-07T22:06:25.033Z,11.93
2019-02-07T22:08:57.011Z,11.20
2019-02-07T22:11:28.633Z,11.20
2019-02-07T22:13:59.120Z,7.93
2019-02-07T22:16:29.127Z,12.80
2019-02-07T22:18:59.982Z,11.40
2019-02-07T22:21:30.602Z,12.97
2019-02-07T22:24:00.657Z,12.43
2019-02-07T22:26:31.551Z,8.87
2019-02-07T22:29:01.656Z,9.67
2019-02-07T22:31:31.905Z,11.37
2019-02-07T22:34:08.240Z,7.93
2019-02-07T22:36:38.550Z,11.57
2019-02-07T22:39:09.184Z,7.83
2019-02-07T22:41:46.244Z,7.43
2019-02-07T22:47:58.507Z,8.77
2019-02-07T22:50:32.123Z,9.83
2019-02-07T22:53:02.744Z,11.80
2019-02-07T22:55:33.524Z,8.70
2019-02-07T22:58:04.336Z,9.80
2019-02-07T23:00:38.617Z,11.77
2019-02-07T23:03:16.547Z,8.13
2019-02-07T23:05:46.520Z,8.03
2019-02-07T23:08:17.159Z,8.47
2019-02-07T23:10:48.004Z,7.60
2019-02-07T23:13:18.327Z,9.50
2019-02-07T23:15:48.104Z,9.97
2019-02-07T23:18:18.321Z,8.83
2019-02-07T23:20:48.414Z,10.50
2019-02-07T23:23:18.409Z,9.13
2019-02-07T23:25:48.631Z,11.47
2019-02-07T23:28:18.367Z,9.87
2019-02-07T23:30:48.389Z,11.67
2019-02-07T23:33:18.507Z,11.57
2019-02-07T23:35:48.958Z,10.27
2019-02-07T23:38:19.317Z,8.77
2019-02-07T23:40:49.974Z,9.23
2019-02-07T23:43:20.180Z,9.00
2019-02-07T23:45:50.376Z,8.27
2019-02-07T23:48:20.674Z,10.50
2019-02-07T23:50:50.655Z,7.67
2019-02-07T23:53:21.186Z,7.97
2019-02-07T23:55:51.280Z,10.97
2019-02-07T23:58:21.330Z,10.33
